sensor_id;sensor_type;location;lat;lon;timestamp;P1;durP1;ratioP1;P2;durP2;ratioP2
42514;SDS011;28144;49.920;18.730;2023-09-12T00:01:33;26.13;;;17.85;;
42514;SDS011;28144;49.920;18.730;2023-09-12T00:03:58;23.73;;;16.70;;
42514;SDS011;28144;49.920;18.730;2023-09-12T00:06:25;21.38;;;16.02;;
42514;SDS011;28144;49.920;18.730;2023-09-12T00:08:53;26.13;;;16.80;;
42514;SDS011;28144;49.920;18.730;2023-09-12T00:11:19;30.30;;;16.60;;
42514;SDS011;28144;49.920;18.730;2023-09-12T00:13:45;26.20;;;16.77;;
42514;SDS011;28144;49.920;18.730;2023-09-12T00:16:11;31.38;;;17.35;;
42514;SDS011;28144;49.920;18.730;2023-09-12T00:18:37;25.93;;;16.33;;
42514;SDS011;28144;49.920;18.730;2023-09-12T00:21:03;23.88;;;17.42;;
42514;SDS011;28144;49.920;18.730;2023-09-12T00:23:29;31.40;;;17.13;;
42514;SDS011;28144;49.920;18.730;2023-09-12T00:25:56;20.75;;;15.77;;
42514;SDS011;28144;49.920;18.730;2023-09-12T00:28:22;26.05;;;17.13;;
42514;SDS011;28144;49.920;18.730;2023-09-12T00:30:48;21.23;;;16.33;;
42514;SDS011;28144;49.920;18.730;2023-09-12T00:33:13;24.97;;;16.37;;
42514;SDS011;28144;49.920;18.730;2023-09-12T00:35:39;22.95;;;16.08;;
42514;SDS011;28144;49.920;18.730;2023-09-12T00:38:05;21.97;;;18.27;;
42514;SDS011;28144;49.920;18.730;2023-09-12T00:40:32;28.13;;;17.05;;
42514;SDS011;28144;49.920;18.730;2023-09-12T00:42:58;25.02;;;16.25;;
42514;SDS011;28144;49.920;18.730;2023-09-12T00:45:24;25.00;;;18.92;;
42514;SDS011;28144;49.920;18.730;2023-09-12T00:47:50;26.38;;;17.42;;
42514;SDS011;28144;49.920;18.730;2023-09-12T00:50:17;25.20;;;17.73;;
42514;SDS011;28144;49.920;18.730;2023-09-12T00:52:44;24.73;;;16.60;;
42514;SDS011;28144;49.920;18.730;2023-09-12T00:55:10;22.35;;;16.33;;
42514;SDS011;28144;49.920;18.730;2023-09-12T00:57:36;23.27;;;16.90;;
42514;SDS011;28144;49.920;18.730;2023-09-12T01:00:03;19.77;;;15.65;;
42514;SDS011;28144;49.920;18.730;2023-09-12T01:02:40;21.08;;;16.23;;
42514;SDS011;28144;49.920;18.730;2023-09-12T01:05:07;24.13;;;16.90;;
42514;SDS011;28144;49.920;18.730;2023-09-12T01:07:37;22.73;;;16.83;;
42514;SDS011;28144;49.920;18.730;2023-09-12T01:10:04;27.92;;;16.92;;
42514;SDS011;28144;49.920;18.730;2023-09-12T01:12:30;21.67;;;15.70;;
42514;SDS011;28144;49.920;18.730;2023-09-12T01:14:56;25.75;;;16.48;;
42514;SDS011;28144;49.920;18.730;2023-09-12T01:17:22;23.57;;;17.27;;
42514;SDS011;28144;49.920;18.730;2023-09-12T01:19:48;22.33;;;14.75;;
42514;SDS011;28144;49.920;18.730;2023-09-12T01:25:08;23.52;;;17.40;;
42514;SDS011;28144;49.920;18.730;2023-09-12T01:27:51;30.00;;;19.80;;
42514;SDS011;28144;49.920;18.730;2023-09-12T01:30:18;28.20;;;19.17;;
42514;SDS011;28144;49.920;18.730;2023-09-12T01:32:46;27.83;;;16.80;;
42514;SDS011;28144;49.920;18.730;2023-09-12T01:37:38;21.55;;;15.95;;
42514;SDS011;28144;49.920;18.730;2023-09-12T01:40:04;25.13;;;18.70;;
42514;SDS011;28144;49.920;18.730;2023-09-12T01:42:35;30.15;;;20.92;;
42514;SDS011;28144;49.920;18.730;2023-09-12T01:45:04;26.00;;;19.05;;
42514;SDS011;28144;49.920;18.730;2023-09-12T01:47:30;25.05;;;18.38;;
42514;SDS011;28144;49.920;18.730;2023-09-12T01:49:56;20.17;;;16.38;;
42514;SDS011;28144;49.920;18.730;2023-09-12T01:52:23;21.65;;;15.60;;
42514;SDS011;28144;49.920;18.730;2023-09-12T01:54:50;24.92;;;15.98;;
42514;SDS011;28144;49.920;18.730;2023-09-12T01:57:17;26.58;;;19.33;;
42514;SDS011;28144;49.920;18.730;2023-09-12T01:59:48;24.00;;;17.40;;
42514;SDS011;28144;49.920;18.730;2023-09-12T02:02:15;24.27;;;16.35;;
42514;SDS011;28144;49.920;18.730;2023-09-12T02:04:41;26.42;;;16.98;;
42514;SDS011;28144;49.920;18.730;2023-09-12T02:07:09;24.55;;;18.02;;
42514;SDS011;28144;49.920;18.730;2023-09-12T02:09:35;41.13;;;24.17;;
42514;SDS011;28144;49.920;18.730;2023-09-12T02:12:01;29.13;;;20.93;;
42514;SDS011;28144;49.920;18.730;2023-09-12T02:14:27;27.95;;;18.55;;
42514;SDS011;28144;49.920;18.730;2023-09-12T02:16:52;22.37;;;16.97;;
42514;SDS011;28144;49.920;18.730;2023-09-12T02:19:18;30.73;;;19.15;;
42514;SDS011;28144;49.920;18.730;2023-09-12T02:21:43;27.33;;;18.73;;
42514;SDS011;28144;49.920;18.730;2023-09-12T02:24:09;32.75;;;20.17;;
42514;SDS011;28144;49.920;18.730;2023-09-12T02:26:35;24.77;;;18.43;;
42514;SDS011;28144;49.920;18.730;2023-09-12T02:31:28;25.67;;;17.67;;
42514;SDS011;28144;49.920;18.730;2023-09-12T02:33:54;32.10;;;18.48;;
42514;SDS011;28144;49.920;18.730;2023-09-12T02:36:19;28.08;;;19.08;;
42514;SDS011;28144;49.920;18.730;2023-09-12T02:38:45;23.58;;;16.38;;
42514;SDS011;28144;49.920;18.730;2023-09-12T02:41:11;22.77;;;16.67;;
42514;SDS011;28144;49.920;18.730;2023-09-12T02:43:37;19.55;;;15.95;;
42514;SDS011;28144;49.920;18.730;2023-09-12T02:46:02;27.67;;;18.40;;
42514;SDS011;28144;49.920;18.730;2023-09-12T02:48:28;28.08;;;18.30;;
42514;SDS011;28144;49.920;18.730;2023-09-12T02:50:54;24.92;;;16.50;;
42514;SDS011;28144;49.920;18.730;2023-09-12T02:53:20;26.60;;;16.98;;
42514;SDS011;28144;49.920;18.730;2023-09-12T02:55:46;20.73;;;15.40;;
42514;SDS011;28144;49.920;18.730;2023-09-12T02:58:12;22.58;;;16.77;;
42514;SDS011;28144;49.920;18.730;2023-09-12T03:00:38;20.70;;;17.40;;
42514;SDS011;28144;49.920;18.730;2023-09-12T03:03:05;21.55;;;16.92;;
42514;SDS011;28144;49.920;18.730;2023-09-12T03:05:31;22.25;;;15.05;;
42514;SDS011;28144;49.920;18.730;2023-09-12T03:07:56;20.65;;;16.00;;
42514;SDS011;28144;49.920;18.730;2023-09-12T03:10:22;22.10;;;16.97;;
42514;SDS011;28144;49.920;18.730;2023-09-12T03:12:48;19.75;;;15.90;;
42514;SDS011;28144;49.920;18.730;2023-09-12T03:15:13;20.47;;;15.90;;
42514;SDS011;28144;49.920;18.730;2023-09-12T03:17:39;20.42;;;16.02;;
42514;SDS011;28144;49.920;18.730;2023-09-12T03:20:05;19.87;;;15.43;;
42514;SDS011;28144;49.920;18.730;2023-09-12T03:22:34;22.63;;;16.30;;
42514;SDS011;28144;49.920;18.730;2023-09-12T03:25:06;23.42;;;16.40;;
42514;SDS011;28144;49.920;18.730;2023-09-12T03:27:32;25.15;;;15.57;;
42514;SDS011;28144;49.920;18.730;2023-09-12T03:29:58;24.77;;;15.40;;
42514;SDS011;28144;49.920;18.730;2023-09-12T03:32:24;23.02;;;14.90;;
42514;SDS011;28144;49.920;18.730;2023-09-12T03:34:49;23.60;;;16.57;;
42514;SDS011;28144;49.920;18.730;2023-09-12T03:37:15;27.13;;;15.32;;
42514;SDS011;28144;49.920;18.730;2023-09-12T03:39:41;24.20;;;16.13;;
42514;SDS011;28144;49.920;18.730;2023-09-12T03:42:06;18.10;;;13.90;;
42514;SDS011;28144;49.920;18.730;2023-09-12T03:44:32;19.90;;;13.90;;
42514;SDS011;28144;49.920;18.730;2023-09-12T03:46:58;21.58;;;14.02;;
42514;SDS011;28144;49.920;18.730;2023-09-12T03:49:23;18.23;;;13.73;;
42514;SDS011;28144;49.920;18.730;2023-09-12T03:51:49;26.88;;;14.25;;
42514;SDS011;28144;49.920;18.730;2023-09-12T03:54:15;25.73;;;13.73;;
42514;SDS011;28144;49.920;18.730;2023-09-12T03:56:41;24.33;;;15.77;;
42514;SDS011;28144;49.920;18.730;2023-09-12T03:59:06;26.05;;;15.98;;
42514;SDS011;28144;49.920;18.730;2023-09-12T04:01:32;23.48;;;16.08;;
42514;SDS011;28144;49.920;18.730;2023-09-12T04:03:58;21.77;;;14.37;;
42514;SDS011;28144;49.920;18.730;2023-09-12T04:06:24;25.70;;;14.82;;
42514;SDS011;28144;49.920;18.730;2023-09-12T04:08:49;21.50;;;14.90;;
42514;SDS011;28144;49.920;18.730;2023-09-12T04:11:15;23.25;;;15.48;;
42514;SDS011;28144;49.920;18.730;2023-09-12T04:13:40;18.03;;;14.53;;
42514;SDS011;28144;49.920;18.730;2023-09-12T04:16:07;26.13;;;15.38;;
42514;SDS011;28144;49.920;18.730;2023-09-12T04:18:32;21.63;;;16.13;;
42514;SDS011;28144;49.920;18.730;2023-09-12T04:20:58;21.63;;;14.57;;
42514;SDS011;28144;49.920;18.730;2023-09-12T04:23:26;21.17;;;17.50;;
42514;SDS011;28144;49.920;18.730;2023-09-12T04:25:52;27.33;;;19.33;;
42514;SDS011;28144;49.920;18.730;2023-09-12T04:28:18;22.43;;;15.93;;
42514;SDS011;28144;49.920;18.730;2023-09-12T04:30:44;19.52;;;14.55;;
42514;SDS011;28144;49.920;18.730;2023-09-12T04:33:10;21.98;;;16.02;;
42514;SDS011;28144;49.920;18.730;2023-09-12T04:35:35;20.30;;;15.80;;
42514;SDS011;28144;49.920;18.730;2023-09-12T04:38:01;25.60;;;16.10;;
42514;SDS011;28144;49.920;18.730;2023-09-12T04:40:28;25.77;;;15.73;;
42514;SDS011;28144;49.920;18.730;2023-09-12T04:42:54;26.60;;;16.67;;
42514;SDS011;28144;49.920;18.730;2023-09-12T04:45:20;18.15;;;13.90;;
42514;SDS011;28144;49.920;18.730;2023-09-12T04:47:45;25.45;;;14.15;;
42514;SDS011;28144;49.920;18.730;2023-09-12T04:50:11;21.73;;;14.68;;
42514;SDS011;28144;49.920;18.730;2023-09-12T04:52:37;24.80;;;14.83;;
42514;SDS011;28144;49.920;18.730;2023-09-12T04:57:29;22.92;;;15.18;;
42514;SDS011;28144;49.920;18.730;2023-09-12T04:59:56;27.95;;;13.65;;
42514;SDS011;28144;49.920;18.730;2023-09-12T05:02:24;16.55;;;13.18;;
42514;SDS011;28144;49.920;18.730;2023-09-12T05:04:50;21.20;;;14.65;;
42514;SDS011;28144;49.920;18.730;2023-09-12T05:07:16;30.30;;;15.40;;
42514;SDS011;28144;49.920;18.730;2023-09-12T05:09:42;26.40;;;17.23;;
42514;SDS011;28144;49.920;18.730;2023-09-12T05:12:08;29.70;;;16.97;;
42514;SDS011;28144;49.920;18.730;2023-09-12T05:14:34;29.67;;;16.33;;
42514;SDS011;28144;49.920;18.730;2023-09-12T05:16:59;31.63;;;16.97;;
42514;SDS011;28144;49.920;18.730;2023-09-12T05:19:27;33.13;;;16.95;;
42514;SDS011;28144;49.920;18.730;2023-09-12T05:21:52;18.98;;;13.85;;
42514;SDS011;28144;49.920;18.730;2023-09-12T05:24:18;22.83;;;16.30;;
42514;SDS011;28144;49.920;18.730;2023-09-12T05:26:44;26.97;;;15.93;;
42514;SDS011;28144;49.920;18.730;2023-09-12T05:29:10;25.83;;;17.10;;
42514;SDS011;28144;49.920;18.730;2023-09-12T05:31:35;26.27;;;18.00;;
42514;SDS011;28144;49.920;18.730;2023-09-12T05:34:01;24.65;;;17.83;;
42514;SDS011;28144;49.920;18.730;2023-09-12T05:36:27;30.90;;;19.37;;
42514;SDS011;28144;49.920;18.730;2023-09-12T05:38:53;37.72;;;21.13;;
42514;SDS011;28144;49.920;18.730;2023-09-12T05:41:18;39.30;;;21.43;;
42514;SDS011;28144;49.920;18.730;2023-09-12T05:43:44;32.78;;;20.02;;
42514;SDS011;28144;49.920;18.730;2023-09-12T05:46:10;28.27;;;19.67;;
42514;SDS011;28144;49.920;18.730;2023-09-12T05:48:36;26.60;;;17.55;;
42514;SDS011;28144;49.920;18.730;2023-09-12T05:51:01;26.93;;;15.80;;
42514;SDS011;28144;49.920;18.730;2023-09-12T05:53:27;39.65;;;19.67;;
42514;SDS011;28144;49.920;18.730;2023-09-12T05:55:53;27.75;;;17.88;;
42514;SDS011;28144;49.920;18.730;2023-09-12T05:58:19;23.45;;;15.07;;
42514;SDS011;28144;49.920;18.730;2023-09-12T06:00:45;23.93;;;14.90;;
42514;SDS011;28144;49.920;18.730;2023-09-12T06:03:14;19.25;;;12.73;;
42514;SDS011;28144;49.920;18.730;2023-09-12T06:05:40;19.88;;;12.02;;
42514;SDS011;28144;49.920;18.730;2023-09-12T06:08:06;16.60;;;13.32;;
42514;SDS011;28144;49.920;18.730;2023-09-12T06:10:33;17.63;;;12.57;;
42514;SDS011;28144;49.920;18.730;2023-09-12T06:12:59;20.55;;;13.70;;
42514;SDS011;28144;49.920;18.730;2023-09-12T06:15:25;19.23;;;12.80;;
42514;SDS011;28144;49.920;18.730;2023-09-12T06:17:53;19.67;;;12.02;;
42514;SDS011;28144;49.920;18.730;2023-09-12T06:20:19;19.67;;;12.57;;
42514;SDS011;28144;49.920;18.730;2023-09-12T06:22:45;16.23;;;13.57;;
42514;SDS011;28144;49.920;18.730;2023-09-12T06:25:10;17.93;;;12.93;;
42514;SDS011;28144;49.920;18.730;2023-09-12T06:27:36;22.80;;;12.25;;
42514;SDS011;28144;49.920;18.730;2023-09-12T06:30:02;15.67;;;11.13;;
42514;SDS011;28144;49.920;18.730;2023-09-12T06:32:32;18.58;;;10.85;;
42514;SDS011;28144;49.920;18.730;2023-09-12T06:34:58;11.55;;;9.85;;
42514;SDS011;28144;49.920;18.730;2023-09-12T06:37:23;11.80;;;9.60;;
42514;SDS011;28144;49.920;18.730;2023-09-12T06:39:49;14.37;;;9.47;;
42514;SDS011;28144;49.920;18.730;2023-09-12T06:42:16;15.85;;;9.95;;
42514;SDS011;28144;49.920;18.730;2023-09-12T06:44:42;17.40;;;10.38;;
42514;SDS011;28144;49.920;18.730;2023-09-12T06:47:08;15.38;;;10.55;;
42514;SDS011;28144;49.920;18.730;2023-09-12T06:49:35;17.85;;;10.43;;
42514;SDS011;28144;49.920;18.730;2023-09-12T06:52:03;16.45;;;10.65;;
42514;SDS011;28144;49.920;18.730;2023-09-12T06:59:20;17.80;;;9.93;;
42514;SDS011;28144;49.920;18.730;2023-09-12T07:01:46;15.50;;;9.95;;
42514;SDS011;28144;49.920;18.730;2023-09-12T07:04:12;15.90;;;9.65;;
42514;SDS011;28144;49.920;18.730;2023-09-12T07:11:30;13.30;;;9.77;;
42514;SDS011;28144;49.920;18.730;2023-09-12T07:13:56;18.80;;;10.98;;
42514;SDS011;28144;49.920;18.730;2023-09-12T07:16:21;15.88;;;9.00;;
42514;SDS011;28144;49.920;18.730;2023-09-12T07:18:50;14.68;;;8.52;;
42514;SDS011;28144;49.920;18.730;2023-09-12T07:21:16;13.68;;;9.15;;
42514;SDS011;28144;49.920;18.730;2023-09-12T07:23:41;16.30;;;9.13;;
42514;SDS011;28144;49.920;18.730;2023-09-12T07:26:11;14.10;;;8.45;;
42514;SDS011;28144;49.920;18.730;2023-09-12T07:28:38;13.02;;;8.98;;
42514;SDS011;28144;49.920;18.730;2023-09-12T07:31:04;13.32;;;8.43;;
42514;SDS011;28144;49.920;18.730;2023-09-12T07:33:30;16.85;;;8.45;;
42514;SDS011;28144;49.920;18.730;2023-09-12T07:35:56;13.38;;;7.72;;
42514;SDS011;28144;49.920;18.730;2023-09-12T07:38:21;11.75;;;7.25;;
42514;SDS011;28144;49.920;18.730;2023-09-12T07:40:47;11.50;;;7.28;;
42514;SDS011;28144;49.920;18.730;2023-09-12T07:43:13;14.75;;;7.40;;
42514;SDS011;28144;49.920;18.730;2023-09-12T07:45:39;9.13;;;6.93;;
42514;SDS011;28144;49.920;18.730;2023-09-12T07:48:08;13.02;;;8.10;;
42514;SDS011;28144;49.920;18.730;2023-09-12T07:50:38;8.27;;;7.03;;
42514;SDS011;28144;49.920;18.730;2023-09-12T07:53:07;9.80;;;7.70;;
42514;SDS011;28144;49.920;18.730;2023-09-12T07:55:36;11.40;;;7.30;;
42514;SDS011;28144;49.920;18.730;2023-09-12T07:58:11;15.43;;;7.57;;
42514;SDS011;28144;49.920;18.730;2023-09-12T08:00:40;10.75;;;7.13;;
42514;SDS011;28144;49.920;18.730;2023-09-12T08:03:05;10.77;;;8.15;;
42514;SDS011;28144;49.920;18.730;2023-09-12T08:05:31;9.95;;;7.00;;
42514;SDS011;28144;49.920;18.730;2023-09-12T08:07:57;7.80;;;7.00;;
42514;SDS011;28144;49.920;18.730;2023-09-12T08:10:23;11.13;;;7.93;;
42514;SDS011;28144;49.920;18.730;2023-09-12T08:12:49;9.38;;;6.43;;
42514;SDS011;28144;49.920;18.730;2023-09-12T08:15:14;9.18;;;7.07;;
42514;SDS011;28144;49.920;18.730;2023-09-12T08:17:43;11.65;;;7.40;;
42514;SDS011;28144;49.920;18.730;2023-09-12T08:20:10;11.65;;;6.60;;
42514;SDS011;28144;49.920;18.730;2023-09-12T08:22:36;11.82;;;7.03;;
42514;SDS011;28144;49.920;18.730;2023-09-12T08:25:02;10.27;;;7.65;;
42514;SDS011;28144;49.920;18.730;2023-09-12T08:27:28;10.05;;;6.80;;
42514;SDS011;28144;49.920;18.730;2023-09-12T08:29:54;9.82;;;7.90;;
42514;SDS011;28144;49.920;18.730;2023-09-12T08:32:20;14.13;;;7.90;;
42514;SDS011;28144;49.920;18.730;2023-09-12T08:34:45;10.98;;;7.63;;
42514;SDS011;28144;49.920;18.730;2023-09-12T08:37:11;12.55;;;7.72;;
42514;SDS011;28144;49.920;18.730;2023-09-12T08:39:43;11.88;;;7.75;;
42514;SDS011;28144;49.920;18.730;2023-09-12T08:42:14;8.38;;;7.45;;
42514;SDS011;28144;49.920;18.730;2023-09-12T08:44:42;11.02;;;7.78;;
42514;SDS011;28144;49.920;18.730;2023-09-12T08:47:08;11.98;;;7.88;;
42514;SDS011;28144;49.920;18.730;2023-09-12T08:49:37;13.13;;;7.88;;
42514;SDS011;28144;49.920;18.730;2023-09-12T08:52:06;10.23;;;7.10;;
42514;SDS011;28144;49.920;18.730;2023-09-12T08:54:32;16.20;;;7.05;;
42514;SDS011;28144;49.920;18.730;2023-09-12T08:59:23;15.30;;;6.60;;
42514;SDS011;28144;49.920;18.730;2023-09-12T09:04:18;9.68;;;7.22;;
42514;SDS011;28144;49.920;18.730;2023-09-12T09:06:45;11.15;;;6.18;;
42514;SDS011;28144;49.920;18.730;2023-09-12T09:09:11;10.40;;;6.60;;
42514;SDS011;28144;49.920;18.730;2023-09-12T09:11:37;11.38;;;6.57;;
42514;SDS011;28144;49.920;18.730;2023-09-12T09:14:03;9.20;;;5.75;;
42514;SDS011;28144;49.920;18.730;2023-09-12T09:16:29;8.57;;;6.60;;
42514;SDS011;28144;49.920;18.730;2023-09-12T09:21:21;10.52;;;6.13;;
42514;SDS011;28144;49.920;18.730;2023-09-12T09:23:52;8.27;;;6.22;;
42514;SDS011;28144;49.920;18.730;2023-09-12T09:26:19;8.90;;;5.72;;
42514;SDS011;28144;49.920;18.730;2023-09-12T09:28:45;7.88;;;6.00;;
42514;SDS011;28144;49.920;18.730;2023-09-12T09:31:14;13.18;;;6.13;;
42514;SDS011;28144;49.920;18.730;2023-09-12T09:33:40;9.27;;;5.65;;
42514;SDS011;28144;49.920;18.730;2023-09-12T09:38:35;11.85;;;6.43;;
42514;SDS011;28144;49.920;18.730;2023-09-12T09:41:04;9.00;;;6.13;;
42514;SDS011;28144;49.920;18.730;2023-09-12T09:43:31;6.63;;;5.30;;
42514;SDS011;28144;49.920;18.730;2023-09-12T09:48:23;11.10;;;6.07;;
42514;SDS011;28144;49.920;18.730;2023-09-12T09:50:52;10.30;;;6.70;;
42514;SDS011;28144;49.920;18.730;2023-09-12T09:53:28;8.25;;;6.07;;
42514;SDS011;28144;49.920;18.730;2023-09-12T09:56:17;7.55;;;5.53;;
42514;SDS011;28144;49.920;18.730;2023-09-12T09:58:52;7.13;;;5.65;;
42514;SDS011;28144;49.920;18.730;2023-09-12T10:01:28;18.42;;;7.05;;
42514;SDS011;28144;49.920;18.730;2023-09-12T10:03:58;14.55;;;6.20;;
42514;SDS011;28144;49.920;18.730;2023-09-12T10:06:28;13.10;;;6.43;;
42514;SDS011;28144;49.920;18.730;2023-09-12T10:08:55;10.80;;;6.05;;
42514;SDS011;28144;49.920;18.730;2023-09-12T10:11:25;10.98;;;6.20;;
42514;SDS011;28144;49.920;18.730;2023-09-12T10:16:30;9.27;;;5.78;;
42514;SDS011;28144;49.920;18.730;2023-09-12T10:22:00;20.38;;;6.38;;
42514;SDS011;28144;49.920;18.730;2023-09-12T10:24:33;10.48;;;5.95;;
42514;SDS011;28144;49.920;18.730;2023-09-12T10:27:00;8.77;;;5.85;;
42514;SDS011;28144;49.920;18.730;2023-09-12T10:29:26;14.93;;;5.90;;
42514;SDS011;28144;49.920;18.730;2023-09-12T10:34:17;7.95;;;5.47;;
42514;SDS011;28144;49.920;18.730;2023-09-12T10:39:10;9.85;;;5.95;;
42514;SDS011;28144;49.920;18.730;2023-09-12T10:41:37;7.78;;;5.60;;
42514;SDS011;28144;49.920;18.730;2023-09-12T10:44:10;17.38;;;6.78;;
42514;SDS011;28144;49.920;18.730;2023-09-12T10:46:39;11.68;;;6.03;;
42514;SDS011;28144;49.920;18.730;2023-09-12T10:49:06;14.98;;;6.22;;
42514;SDS011;28144;49.920;18.730;2023-09-12T10:51:35;9.70;;;6.15;;
42514;SDS011;28144;49.920;18.730;2023-09-12T10:54:04;9.13;;;5.80;;
42514;SDS011;28144;49.920;18.730;2023-09-12T11:01:30;23.15;;;6.25;;
42514;SDS011;28144;49.920;18.730;2023-09-12T11:03:57;9.77;;;6.80;;
42514;SDS011;28144;49.920;18.730;2023-09-12T11:12:03;7.65;;;5.93;;
42514;SDS011;28144;49.920;18.730;2023-09-12T11:14:28;7.97;;;5.90;;
42514;SDS011;28144;49.920;18.730;2023-09-12T11:19:48;14.25;;;5.60;;
42514;SDS011;28144;49.920;18.730;2023-09-12T11:22:22;11.23;;;5.97;;
42514;SDS011;28144;49.920;18.730;2023-09-12T11:24:53;11.55;;;5.60;;
42514;SDS011;28144;49.920;18.730;2023-09-12T11:27:21;8.95;;;5.93;;
42514;SDS011;28144;49.920;18.730;2023-09-12T11:29:48;12.07;;;6.47;;
42514;SDS011;28144;49.920;18.730;2023-09-12T11:34:55;10.60;;;6.13;;
42514;SDS011;28144;49.920;18.730;2023-09-12T11:39:54;11.32;;;5.53;;
42514;SDS011;28144;49.920;18.730;2023-09-12T11:44:48;10.60;;;5.47;;
42514;SDS011;28144;49.920;18.730;2023-09-12T11:47:14;8.02;;;5.63;;
42514;SDS011;28144;49.920;18.730;2023-09-12T11:52:09;7.60;;;6.00;;
42514;SDS011;28144;49.920;18.730;2023-09-12T11:54:38;9.82;;;6.20;;
42514;SDS011;28144;49.920;18.730;2023-09-12T11:57:08;14.05;;;5.53;;
42514;SDS011;28144;49.920;18.730;2023-09-12T11:59:40;12.48;;;6.60;;
42514;SDS011;28144;49.920;18.730;2023-09-12T12:02:10;12.90;;;5.47;;
42514;SDS011;28144;49.920;18.730;2023-09-12T12:04:36;11.00;;;6.03;;
42514;SDS011;28144;49.920;18.730;2023-09-12T12:09:32;9.57;;;6.57;;
42514;SDS011;28144;49.920;18.730;2023-09-12T12:14:50;15.77;;;5.90;;
42514;SDS011;28144;49.920;18.730;2023-09-12T12:19:44;14.63;;;5.90;;
42514;SDS011;28144;49.920;18.730;2023-09-12T12:22:11;8.60;;;6.18;;
42514;SDS011;28144;49.920;18.730;2023-09-12T12:27:03;7.85;;;6.32;;
42514;SDS011;28144;49.920;18.730;2023-09-12T12:29:30;13.57;;;6.28;;
42514;SDS011;28144;49.920;18.730;2023-09-12T12:32:01;11.13;;;5.95;;
42514;SDS011;28144;49.920;18.730;2023-09-12T12:34:28;10.52;;;5.80;;
42514;SDS011;28144;49.920;18.730;2023-09-12T12:36:54;10.00;;;6.05;;
42514;SDS011;28144;49.920;18.730;2023-09-12T12:39:21;8.90;;;6.10;;
42514;SDS011;28144;49.920;18.730;2023-09-12T12:41:48;9.65;;;5.97;;
42514;SDS011;28144;49.920;18.730;2023-09-12T12:44:14;13.90;;;5.57;;
42514;SDS011;28144;49.920;18.730;2023-09-12T12:46:53;15.38;;;5.75;;
42514;SDS011;28144;49.920;18.730;2023-09-12T12:49:19;7.35;;;5.75;;
42514;SDS011;28144;49.920;18.730;2023-09-12T12:51:45;11.85;;;5.22;;
42514;SDS011;28144;49.920;18.730;2023-09-12T12:54:13;9.40;;;5.88;;
42514;SDS011;28144;49.920;18.730;2023-09-12T12:59:05;10.68;;;5.55;;
42514;SDS011;28144;49.920;18.730;2023-09-12T13:01:33;8.82;;;5.63;;
42514;SDS011;28144;49.920;18.730;2023-09-12T13:04:04;8.43;;;5.55;;
42514;SDS011;28144;49.920;18.730;2023-09-12T13:06:30;8.68;;;5.13;;
42514;SDS011;28144;49.920;18.730;2023-09-12T13:09:01;6.97;;;5.28;;
42514;SDS011;28144;49.920;18.730;2023-09-12T13:11:30;11.07;;;5.88;;
42514;SDS011;28144;49.920;18.730;2023-09-12T13:13:57;8.05;;;5.70;;
42514;SDS011;28144;49.920;18.730;2023-09-12T13:18:49;11.60;;;5.63;;
42514;SDS011;28144;49.920;18.730;2023-09-12T13:23:40;10.07;;;5.57;;
42514;SDS011;28144;49.920;18.730;2023-09-12T13:26:09;9.82;;;5.15;;
42514;SDS011;28144;49.920;18.730;2023-09-12T13:28:36;7.13;;;5.38;;
42514;SDS011;28144;49.920;18.730;2023-09-12T13:31:02;8.50;;;5.32;;
42514;SDS011;28144;49.920;18.730;2023-09-12T13:33:29;8.13;;;5.05;;
42514;SDS011;28144;49.920;18.730;2023-09-12T13:38:20;5.78;;;5.13;;
42514;SDS011;28144;49.920;18.730;2023-09-12T13:40:47;9.23;;;5.30;;
42514;SDS011;28144;49.920;18.730;2023-09-12T13:45:40;8.85;;;5.50;;
42514;SDS011;28144;49.920;18.730;2023-09-12T13:48:06;8.43;;;5.22;;
42514;SDS011;28144;49.920;18.730;2023-09-12T13:52:58;7.10;;;5.25;;
42514;SDS011;28144;49.920;18.730;2023-09-12T13:55:34;9.18;;;5.07;;
42514;SDS011;28144;49.920;18.730;2023-09-12T13:58:01;11.48;;;5.65;;
42514;SDS011;28144;49.920;18.730;2023-09-12T14:00:31;7.22;;;6.10;;
42514;SDS011;28144;49.920;18.730;2023-09-12T14:02:57;7.63;;;5.95;;
42514;SDS011;28144;49.920;18.730;2023-09-12T14:05:23;8.50;;;5.88;;
42514;SDS011;28144;49.920;18.730;2023-09-12T14:07:49;13.35;;;5.43;;
42514;SDS011;28144;49.920;18.730;2023-09-12T14:12:40;10.15;;;5.55;;
42514;SDS011;28144;49.920;18.730;2023-09-12T14:15:06;6.28;;;5.45;;
42514;SDS011;28144;49.920;18.730;2023-09-12T14:17:32;8.30;;;5.68;;
42514;SDS011;28144;49.920;18.730;2023-09-12T14:22:24;10.18;;;6.13;;
42514;SDS011;28144;49.920;18.730;2023-09-12T14:24:51;8.02;;;5.65;;
42514;SDS011;28144;49.920;18.730;2023-09-12T14:27:17;12.68;;;6.13;;
42514;SDS011;28144;49.920;18.730;2023-09-12T14:29:46;12.05;;;5.80;;
42514;SDS011;28144;49.920;18.730;2023-09-12T14:32:15;6.43;;;5.30;;
42514;SDS011;28144;49.920;18.730;2023-09-12T14:34:43;9.10;;;5.95;;
42514;SDS011;28144;49.920;18.730;2023-09-12T14:37:11;9.25;;;6.10;;
42514;SDS011;28144;49.920;18.730;2023-09-12T14:39:36;7.95;;;5.05;;
42514;SDS011;28144;49.920;18.730;2023-09-12T14:42:03;9.13;;;5.72;;
42514;SDS011;28144;49.920;18.730;2023-09-12T14:44:35;7.85;;;5.63;;
42514;SDS011;28144;49.920;18.730;2023-09-12T14:49:28;7.43;;;6.20;;
42514;SDS011;28144;49.920;18.730;2023-09-12T14:54:19;10.35;;;5.20;;
42514;SDS011;28144;49.920;18.730;2023-09-12T14:56:48;7.53;;;5.30;;
42514;SDS011;28144;49.920;18.730;2023-09-12T15:04:04;9.35;;;5.28;;
42514;SDS011;28144;49.920;18.730;2023-09-12T15:08:58;9.82;;;5.60;;
42514;SDS011;28144;49.920;18.730;2023-09-12T15:11:24;6.78;;;5.25;;
42514;SDS011;28144;49.920;18.730;2023-09-12T15:18:41;9.55;;;5.88;;
42514;SDS011;28144;49.920;18.730;2023-09-12T15:21:07;8.15;;;5.55;;
42514;SDS011;28144;49.920;18.730;2023-09-12T15:25:59;12.65;;;6.28;;
42514;SDS011;28144;49.920;18.730;2023-09-12T15:30:50;8.52;;;5.38;;
42514;SDS011;28144;49.920;18.730;2023-09-12T15:35:42;9.45;;;5.40;;
42514;SDS011;28144;49.920;18.730;2023-09-12T15:42:58;7.60;;;5.43;;
42514;SDS011;28144;49.920;18.730;2023-09-12T15:47:50;7.97;;;5.63;;
42514;SDS011;28144;49.920;18.730;2023-09-12T15:52:41;9.95;;;5.93;;
42514;SDS011;28144;49.920;18.730;2023-09-12T15:55:08;11.32;;;6.15;;
42514;SDS011;28144;49.920;18.730;2023-09-12T15:57:35;8.07;;;4.97;;
42514;SDS011;28144;49.920;18.730;2023-09-12T16:00:04;8.15;;;5.80;;
42514;SDS011;28144;49.920;18.730;2023-09-12T16:02:39;10.63;;;5.95;;
42514;SDS011;28144;49.920;18.730;2023-09-12T16:05:07;7.20;;;5.65;;
42514;SDS011;28144;49.920;18.730;2023-09-12T16:09:58;12.15;;;6.20;;
42514;SDS011;28144;49.920;18.730;2023-09-12T16:14:53;7.80;;;5.53;;
42514;SDS011;28144;49.920;18.730;2023-09-12T16:17:22;9.75;;;5.72;;
42514;SDS011;28144;49.920;18.730;2023-09-12T16:19:49;8.85;;;5.63;;
42514;SDS011;28144;49.920;18.730;2023-09-12T16:22:15;7.82;;;6.00;;
42514;SDS011;28144;49.920;18.730;2023-09-12T16:27:06;14.45;;;4.97;;
42514;SDS011;28144;49.920;18.730;2023-09-12T16:29:32;8.77;;;5.40;;
42514;SDS011;28144;49.920;18.730;2023-09-12T16:31:58;7.20;;;5.72;;
42514;SDS011;28144;49.920;18.730;2023-09-12T16:34:26;8.55;;;4.72;;